sensor_id;sensor_type;location;lat;lon;timestamp;pressure;altitude;pressure_sealevel;temperature;humidity
70133;BME280;57495;49.922;7.966;2022-12-04T00:00:12;99881.13;;;1.87;95.48
70133;BME280;57495;49.922;7.966;2022-12-04T00:02:14;99878.22;;;1.91;94.87
70133;BME280;57495;49.922;7.966;2022-12-04T00:04:15;99893.22;;;1.91;95.22
70133;BME280;57495;49.922;7.966;2022-12-04T00:06:18;99890.38;;;1.94;95.02
70133;BME280;57495;49.922;7.966;2022-12-04T00:08:20;99884.34;;;1.92;95.30
70133;BME280;57495;49.922;7.966;2022-12-04T00:10:22;99892.03;;;1.81;95.65
70133;BME280;57495;49.922;7.966;2022-12-04T00:12:24;99892.47;;;1.89;95.26
70133;BME280;57495;49.922;7.966;2022-12-04T00:14:25;99888.47;;;1.82;94.93
70133;BME280;57495;49.922;7.966;2022-12-04T00:16:29;99887.94;;;1.91;94.48
70133;BME280;57495;49.922;7.966;2022-12-04T00:18:31;99896.41;;;1.96;94.67
70133;BME280;57495;49.922;7.966;2022-12-04T00:20:33;99896.59;;;1.93;95.09
70133;BME280;57495;49.922;7.966;2022-12-04T00:22:35;99902.53;;;1.97;94.71
70133;BME280;57495;49.922;7.966;2022-12-04T00:24:37;99900.25;;;1.90;94.67
70133;BME280;57495;49.922;7.966;2022-12-04T00:26:38;99897.59;;;1.90;94.75
70133;BME280;57495;49.922;7.966;2022-12-04T00:28:40;99895.56;;;1.96;94.79
70133;BME280;57495;49.922;7.966;2022-12-04T00:30:42;99889.28;;;1.98;94.34
70133;BME280;57495;49.922;7.966;2022-12-04T00:32:45;99896.41;;;1.96;94.22
70133;BME280;57495;49.922;7.966;2022-12-04T00:34:47;99898.09;;;1.97;94.54
70133;BME280;57495;49.922;7.966;2022-12-04T00:36:48;99899.81;;;1.98;94.47
70133;BME280;57495;49.922;7.966;2022-12-04T00:38:50;99894.81;;;1.93;94.24
70133;BME280;57495;49.922;7.966;2022-12-04T00:40:52;99890.25;;;1.81;94.29
70133;BME280;57495;49.922;7.966;2022-12-04T00:42:53;99890.38;;;1.80;94.51
70133;BME280;57495;49.922;7.966;2022-12-04T00:44:55;99902.41;;;1.84;94.92
70133;BME280;57495;49.922;7.966;2022-12-04T00:46:57;99897.81;;;1.87;94.28
70133;BME280;57495;49.922;7.966;2022-12-04T00:49:00;99905.63;;;1.89;94.00
70133;BME280;57495;49.922;7.966;2022-12-04T00:51:03;99910.50;;;1.81;94.97
70133;BME280;57495;49.922;7.966;2022-12-04T00:53:04;99905.63;;;1.89;94.30
70133;BME280;57495;49.922;7.966;2022-12-04T00:55:07;99903.47;;;1.96;94.09
70133;BME280;57495;49.922;7.966;2022-12-04T00:57:08;99898.09;;;1.97;93.79
70133;BME280;57495;49.922;7.966;2022-12-04T00:59:10;99906.94;;;1.96;93.76
70133;BME280;57495;49.922;7.966;2022-12-04T01:01:14;99893.69;;;1.98;93.74
70133;BME280;57495;49.922;7.966;2022-12-04T01:03:16;99896.78;;;1.90;93.74
70133;BME280;57495;49.922;7.966;2022-12-04T01:05:19;99900.16;;;1.92;94.33
70133;BME280;57495;49.922;7.966;2022-12-04T01:07:21;99887.94;;;1.91;94.13
70133;BME280;57495;49.922;7.966;2022-12-04T01:09:23;99893.38;;;1.88;93.74
70133;BME280;57495;49.922;7.966;2022-12-04T01:11:26;99885.31;;;1.91;93.58
70133;BME280;57495;49.922;7.966;2022-12-04T01:13:27;99878.84;;;1.81;93.53
70133;BME280;57495;49.922;7.966;2022-12-04T01:15:29;99879.28;;;1.89;94.06
70133;BME280;57495;49.922;7.966;2022-12-04T01:17:30;99878.94;;;1.79;93.89
70133;BME280;57495;49.922;7.966;2022-12-04T01:19:32;99872.00;;;1.78;93.91
70133;BME280;57495;49.922;7.966;2022-12-04T01:21:35;99876.22;;;1.81;93.98
70133;BME280;57495;49.922;7.966;2022-12-04T01:23:37;99879.44;;;1.86;93.81
70133;BME280;57495;49.922;7.966;2022-12-04T01:25:38;99866.25;;;1.86;94.45
70133;BME280;57495;49.922;7.966;2022-12-04T01:27:40;99868.81;;;1.87;94.35
70133;BME280;57495;49.922;7.966;2022-12-04T01:29:41;99869.81;;;1.70;94.88
70133;BME280;57495;49.922;7.966;2022-12-04T01:31:43;99858.91;;;1.77;94.95
70133;BME280;57495;49.922;7.966;2022-12-04T01:33:46;99865.50;;;1.84;94.83
70133;BME280;57495;49.922;7.966;2022-12-04T01:35:51;99866.72;;;1.78;95.02
70133;BME280;57495;49.922;7.966;2022-12-04T01:37:54;99868.31;;;1.81;95.08
70133;BME280;57495;49.922;7.966;2022-12-04T01:39:56;99871.91;;;1.80;95.35
70133;BME280;57495;49.922;7.966;2022-12-04T01:41:57;99875.75;;;1.88;94.92
70133;BME280;57495;49.922;7.966;2022-12-04T01:44:10;99863.91;;;1.96;95.22
70133;BME280;57495;49.922;7.966;2022-12-04T01:46:11;99854.00;;;1.85;94.92
70133;BME280;57495;49.922;7.966;2022-12-04T01:48:18;99857.13;;;1.91;94.93
70133;BME280;57495;49.922;7.966;2022-12-04T01:50:21;99858.72;;;1.94;94.96
70133;BME280;57495;49.922;7.966;2022-12-04T01:52:24;99872.28;;;1.88;94.41
70133;BME280;57495;49.922;7.966;2022-12-04T01:54:30;99879.94;;;1.92;94.68
70133;BME280;57495;49.922;7.966;2022-12-04T01:56:36;99879.28;;;1.89;94.97
70133;BME280;57495;49.922;7.966;2022-12-04T01:58:42;99891.03;;;1.83;94.95
70133;BME280;57495;49.922;7.966;2022-12-04T02:00:46;99890.00;;;1.86;95.01
70133;BME280;57495;49.922;7.966;2022-12-04T02:02:52;99892.72;;;1.84;94.84
70133;BME280;57495;49.922;7.966;2022-12-04T02:04:55;99886.41;;;1.87;94.97
70133;BME280;57495;49.922;7.966;2022-12-04T02:06:56;99891.66;;;1.87;95.22
70133;BME280;57495;49.922;7.966;2022-12-04T02:08:59;99892.03;;;1.81;95.25
70133;BME280;57495;49.922;7.966;2022-12-04T02:11:09;99896.03;;;1.88;95.22
70133;BME280;57495;49.922;7.966;2022-12-04T02:13:20;99898.56;;;1.89;94.42
70133;BME280;57495;49.922;7.966;2022-12-04T02:15:32;99895.09;;;1.89;94.50
70133;BME280;57495;49.922;7.966;2022-12-04T02:17:39;99892.91;;;1.96;94.40
70133;BME280;57495;49.922;7.966;2022-12-04T02:20:02;99897.53;;;1.92;94.47
70133;BME280;57495;49.922;7.966;2022-12-04T02:22:13;99894.09;;;1.76;94.59
70133;BME280;57495;49.922;7.966;2022-12-04T02:24:28;99890.16;;;1.83;94.75
70133;BME280;57495;49.922;7.966;2022-12-04T02:26:39;99888.94;;;1.74;94.96
70133;BME280;57495;49.922;7.966;2022-12-04T02:28:47;99892.28;;;1.62;95.65
70133;BME280;57495;49.922;7.966;2022-12-04T02:30:54;99888.25;;;1.70;95.21
70133;BME280;57495;49.922;7.966;2022-12-04T02:33:00;99886.47;;;1.71;95.21
70133;BME280;57495;49.922;7.966;2022-12-04T02:35:09;99881.03;;;1.74;95.58
70133;BME280;57495;49.922;7.966;2022-12-04T02:37:18;99885.34;;;1.75;95.38
70133;BME280;57495;49.922;7.966;2022-12-04T02:39:27;99885.78;;;1.67;95.61
70133;BME280;57495;49.922;7.966;2022-12-04T02:41:38;99877.81;;;1.69;95.43
70133;BME280;57495;49.922;7.966;2022-12-04T02:43:43;99887.31;;;1.71;95.55
70133;BME280;57495;49.922;7.966;2022-12-04T02:45:50;99882.44;;;1.80;95.63
70133;BME280;57495;49.922;7.966;2022-12-04T02:47:57;99884.03;;;1.82;95.54
70133;BME280;57495;49.922;7.966;2022-12-04T02:50:02;99879.44;;;1.86;95.05
70133;BME280;57495;49.922;7.966;2022-12-04T02:52:08;99882.53;;;1.78;95.07
70133;BME280;57495;49.922;7.966;2022-12-04T02:54:17;99875.22;;;1.83;95.13
70133;BME280;57495;49.922;7.966;2022-12-04T02:56:24;99869.56;;;1.89;94.61
70133;BME280;57495;49.922;7.966;2022-12-04T02:58:29;99873.78;;;1.92;94.28
70133;BME280;57495;49.922;7.966;2022-12-04T03:00:34;99864.97;;;1.93;94.59
70133;BME280;57495;49.922;7.966;2022-12-04T03:02:42;99877.72;;;1.85;94.70
70133;BME280;57495;49.922;7.966;2022-12-04T03:04:48;99871.53;;;1.86;94.79
70133;BME280;57495;49.922;7.966;2022-12-04T03:06:55;99870.56;;;1.87;94.76
70133;BME280;57495;49.922;7.966;2022-12-04T03:09:00;99872.66;;;1.82;94.92
70133;BME280;57495;49.922;7.966;2022-12-04T03:11:03;99863.88;;;1.67;95.75
70133;BME280;57495;49.922;7.966;2022-12-04T03:13:09;99861.31;;;1.65;95.31
70133;BME280;57495;49.922;7.966;2022-12-04T03:15:16;99866.72;;;1.78;95.18
70133;BME280;57495;49.922;7.966;2022-12-04T03:17:22;99876.97;;;1.83;94.90
70133;BME280;57495;49.922;7.966;2022-12-04T03:19:33;99871.03;;;1.79;94.88
70133;BME280;57495;49.922;7.966;2022-12-04T03:21:39;99861.25;;;1.67;95.55
70133;BME280;57495;49.922;7.966;2022-12-04T03:23:45;99863.66;;;1.70;95.25
70133;BME280;57495;49.922;7.966;2022-12-04T03:25:54;99863.13;;;1.65;96.40
70133;BME280;57495;49.922;7.966;2022-12-04T03:28:00;99862.16;;;1.66;95.96
70133;BME280;57495;49.922;7.966;2022-12-04T03:30:05;99857.38;;;1.72;95.40
70133;BME280;57495;49.922;7.966;2022-12-04T03:32:11;99854.94;;;1.69;95.86
70133;BME280;57495;49.922;7.966;2022-12-04T03:34:17;99842.03;;;1.65;95.87
70133;BME280;57495;49.922;7.966;2022-12-04T03:36:27;99851.41;;;1.54;96.14
70133;BME280;57495;49.922;7.966;2022-12-04T03:38:34;99856.59;;;1.56;96.35
70133;BME280;57495;49.922;7.966;2022-12-04T03:40:42;99845.84;;;1.59;96.13
70133;BME280;57495;49.922;7.966;2022-12-04T03:42:50;99847.19;;;1.66;96.17
70133;BME280;57495;49.922;7.966;2022-12-04T03:45:00;99854.66;;;1.74;95.84
70133;BME280;57495;49.922;7.966;2022-12-04T03:47:05;99856.63;;;1.70;96.20
70133;BME280;57495;49.922;7.966;2022-12-04T03:49:13;99856.72;;;1.69;96.34
70133;BME280;57495;49.922;7.966;2022-12-04T03:51:22;99854.72;;;1.58;96.58
70133;BME280;57495;49.922;7.966;2022-12-04T03:53:31;99855.69;;;1.71;96.08
70133;BME280;57495;49.922;7.966;2022-12-04T03:55:40;99861.91;;;1.70;95.77
70133;BME280;57495;49.922;7.966;2022-12-04T03:57:44;99853.63;;;1.77;95.56
70133;BME280;57495;49.922;7.966;2022-12-04T03:59:51;99859.47;;;1.82;94.92
70133;BME280;57495;49.922;7.966;2022-12-04T04:01:57;99863.34;;;1.76;95.46
70133;BME280;57495;49.922;7.966;2022-12-04T04:04:01;99855.63;;;1.57;96.16
70133;BME280;57495;49.922;7.966;2022-12-04T04:06:08;99850.78;;;1.65;96.11
70133;BME280;57495;49.922;7.966;2022-12-04T04:08:16;99859.63;;;1.64;95.87
70133;BME280;57495;49.922;7.966;2022-12-04T04:10:29;99860.03;;;1.72;95.41
70133;BME280;57495;49.922;7.966;2022-12-04T04:12:35;99857.25;;;1.60;95.39
70133;BME280;57495;49.922;7.966;2022-12-04T04:14:42;99858.09;;;1.60;95.84
70133;BME280;57495;49.922;7.966;2022-12-04T04:17:07;99867.59;;;1.63;95.66
70133;BME280;57495;49.922;7.966;2022-12-04T04:19:28;99855.75;;;1.56;96.42
70133;BME280;57495;49.922;7.966;2022-12-04T04:21:49;99862.44;;;1.61;96.01
70133;BME280;57495;49.922;7.966;2022-12-04T04:24:24;99853.22;;;1.68;95.59
70133;BME280;57495;49.922;7.966;2022-12-04T04:26:32;99850.41;;;1.71;95.35
70133;BME280;57495;49.922;7.966;2022-12-04T04:28:35;99849.06;;;1.64;96.50
70133;BME280;57495;49.922;7.966;2022-12-04T04:30:37;99850.78;;;1.65;95.98
70133;BME280;57495;49.922;7.966;2022-12-04T04:32:42;99842.66;;;1.68;96.37
70133;BME280;57495;49.922;7.966;2022-12-04T04:34:49;99848.41;;;1.61;96.43
70133;BME280;57495;49.922;7.966;2022-12-04T04:36:54;99849.56;;;1.71;96.45
70133;BME280;57495;49.922;7.966;2022-12-04T04:38:59;99855.84;;;1.68;96.27
70133;BME280;57495;49.922;7.966;2022-12-04T04:41:09;99843.63;;;1.67;96.04
70133;BME280;57495;49.922;7.966;2022-12-04T04:43:19;99843.47;;;1.70;96.30
70133;BME280;57495;49.922;7.966;2022-12-04T04:45:27;99846.63;;;1.61;96.45
70133;BME280;57495;49.922;7.966;2022-12-04T04:47:34;99839.88;;;1.71;96.63
70133;BME280;57495;49.922;7.966;2022-12-04T04:49:38;99854.94;;;1.69;96.58
70133;BME280;57495;49.922;7.966;2022-12-04T04:51:41;99853.00;;;1.57;96.17
70133;BME280;57495;49.922;7.966;2022-12-04T04:53:46;99850.03;;;1.63;96.46
70133;BME280;57495;49.922;7.966;2022-12-04T04:55:49;99840.03;;;1.68;96.33
70133;BME280;57495;49.922;7.966;2022-12-04T04:57:51;99844.84;;;1.62;96.37
70133;BME280;57495;49.922;7.966;2022-12-04T04:59:54;99836.47;;;1.69;96.31
70133;BME280;57495;49.922;7.966;2022-12-04T05:01:55;99840.25;;;1.65;96.52
70133;BME280;57495;49.922;7.966;2022-12-04T05:03:57;99833.47;;;1.61;97.00
70133;BME280;57495;49.922;7.966;2022-12-04T05:05:59;99831.59;;;1.63;96.92
70133;BME280;57495;49.922;7.966;2022-12-04T05:08:00;99826.69;;;1.71;96.87
70133;BME280;57495;49.922;7.966;2022-12-04T05:10:02;99836.31;;;1.72;96.68
70133;BME280;57495;49.922;7.966;2022-12-04T05:12:04;99833.25;;;1.64;96.90
70133;BME280;57495;49.922;7.966;2022-12-04T05:14:05;99843.63;;;1.67;96.84
70133;BME280;57495;49.922;7.966;2022-12-04T05:16:12;99842.41;;;1.73;96.57
70133;BME280;57495;49.922;7.966;2022-12-04T05:18:14;99845.13;;;1.71;96.48
70133;BME280;57495;49.922;7.966;2022-12-04T05:20:15;99840.03;;;1.68;96.63
70133;BME280;57495;49.922;7.966;2022-12-04T05:22:16;99847.41;;;1.63;96.52
70133;BME280;57495;49.922;7.966;2022-12-04T05:24:17;99847.41;;;1.63;96.46
70133;BME280;57495;49.922;7.966;2022-12-04T05:26:19;99850.56;;;1.68;96.25
70133;BME280;57495;49.922;7.966;2022-12-04T05:28:20;99849.75;;;1.68;96.23
70133;BME280;57495;49.922;7.966;2022-12-04T05:30:21;99846.19;;;1.69;96.85
70133;BME280;57495;49.922;7.966;2022-12-04T05:32:27;99844.56;;;1.66;96.44
70133;BME280;57495;49.922;7.966;2022-12-04T05:34:29;99853.19;;;1.54;96.91
70133;BME280;57495;49.922;7.966;2022-12-04T05:36:31;99856.59;;;1.56;97.11
70133;BME280;57495;49.922;7.966;2022-12-04T05:38:33;99853.75;;;1.59;97.12
70133;BME280;57495;49.922;7.966;2022-12-04T05:40:35;99855.75;;;1.56;97.06
70133;BME280;57495;49.922;7.966;2022-12-04T05:42:37;99857.25;;;1.60;97.24
70133;BME280;57495;49.922;7.966;2022-12-04T05:44:38;99862.53;;;1.60;96.73
70133;BME280;57495;49.922;7.966;2022-12-04T05:46:40;99858.94;;;1.61;96.70
70133;BME280;57495;49.922;7.966;2022-12-04T05:48:44;99862.34;;;1.63;96.37
70133;BME280;57495;49.922;7.966;2022-12-04T05:50:45;99869.63;;;1.73;96.52
70133;BME280;57495;49.922;7.966;2022-12-04T05:52:48;99866.59;;;1.65;96.63
70133;BME280;57495;49.922;7.966;2022-12-04T05:54:49;99871.66;;;1.68;96.50
70133;BME280;57495;49.922;7.966;2022-12-04T05:56:51;99872.56;;;1.53;97.72
70133;BME280;57495;49.922;7.966;2022-12-04T05:58:52;99872.44;;;1.70;97.11
70133;BME280;57495;49.922;7.966;2022-12-04T06:00:54;99876.41;;;1.78;96.53
70133;BME280;57495;49.922;7.966;2022-12-04T06:02:56;99868.84;;;1.71;96.36
70133;BME280;57495;49.922;7.966;2022-12-04T06:05:00;99868.78;;;1.73;96.02
70133;BME280;57495;49.922;7.966;2022-12-04T06:07:02;99872.06;;;1.77;96.44
70133;BME280;57495;49.922;7.966;2022-12-04T06:09:05;99869.53;;;1.75;96.51
70133;BME280;57495;49.922;7.966;2022-12-04T06:11:15;99865.25;;;1.58;97.29
70133;BME280;57495;49.922;7.966;2022-12-04T06:13:17;99867.34;;;1.67;97.06
70133;BME280;57495;49.922;7.966;2022-12-04T06:15:19;99865.50;;;1.53;97.14
70133;BME280;57495;49.922;7.966;2022-12-04T06:17:20;99861.31;;;1.65;96.58
70133;BME280;57495;49.922;7.966;2022-12-04T06:19:22;99866.41;;;1.68;96.86
70133;BME280;57495;49.922;7.966;2022-12-04T06:21:27;99869.81;;;1.70;97.06
70133;BME280;57495;49.922;7.966;2022-12-04T06:23:28;99867.84;;;1.74;97.39
70133;BME280;57495;49.922;7.966;2022-12-04T06:25:30;99877.19;;;1.80;97.20
70133;BME280;57495;49.922;7.966;2022-12-04T06:27:31;99878.84;;;1.81;96.79
70133;BME280;57495;49.922;7.966;2022-12-04T06:29:33;99877.56;;;1.88;96.62
70133;BME280;57495;49.922;7.966;2022-12-04T06:31:34;99878.09;;;1.79;96.64
70133;BME280;57495;49.922;7.966;2022-12-04T06:33:37;99875.84;;;1.87;96.52
70133;BME280;57495;49.922;7.966;2022-12-04T06:35:39;99872.97;;;1.91;96.52
70133;BME280;57495;49.922;7.966;2022-12-04T06:37:42;99870.41;;;1.90;96.38
70133;BME280;57495;49.922;7.966;2022-12-04T06:39:43;99866.06;;;1.74;96.71
70133;BME280;57495;49.922;7.966;2022-12-04T06:41:44;99872.53;;;1.69;97.17
70133;BME280;57495;49.922;7.966;2022-12-04T06:43:47;99872.84;;;1.79;97.32
70133;BME280;57495;49.922;7.966;2022-12-04T06:45:58;99873.34;;;1.85;97.08
70133;BME280;57495;49.922;7.966;2022-12-04T06:47:59;99862.47;;;1.76;97.20
70133;BME280;57495;49.922;7.966;2022-12-04T06:50:01;99869.44;;;1.77;97.86
70133;BME280;57495;49.922;7.966;2022-12-04T06:52:03;99880.28;;;1.86;100.00
70133;BME280;57495;49.922;7.966;2022-12-04T06:54:06;99871.72;;;1.83;99.23
70133;BME280;57495;49.922;7.966;2022-12-04T06:56:10;99866.97;;;1.73;98.26
70133;BME280;57495;49.922;7.966;2022-12-04T06:58:11;99862.34;;;1.63;98.37
70133;BME280;57495;49.922;7.966;2022-12-04T07:00:15;99863.38;;;1.60;98.68
70133;BME280;57495;49.922;7.966;2022-12-04T07:02:16;99858.69;;;1.65;98.77
70133;BME280;57495;49.922;7.966;2022-12-04T07:04:18;99854.34;;;1.64;99.43
70133;BME280;57495;49.922;7.966;2022-12-04T07:06:22;99858.00;;;1.62;99.13
70133;BME280;57495;49.922;7.966;2022-12-04T07:08:24;99859.41;;;1.53;99.50
70133;BME280;57495;49.922;7.966;2022-12-04T07:10:27;99859.84;;;1.45;100.00
70133;BME280;57495;49.922;7.966;2022-12-04T07:12:28;99858.63;;;1.51;100.00
70133;BME280;57495;49.922;7.966;2022-12-04T07:14:29;99859.31;;;1.54;100.00
70133;BME280;57495;49.922;7.966;2022-12-04T07:16:31;99856.94;;;1.50;100.00
70133;BME280;57495;49.922;7.966;2022-12-04T07:18:34;99852.00;;;1.60;99.96
70133;BME280;57495;49.922;7.966;2022-12-04T07:20:38;99853.19;;;1.54;99.86
70133;BME280;57495;49.922;7.966;2022-12-04T07:22:40;99856.94;;;1.50;100.00
70133;BME280;57495;49.922;7.966;2022-12-04T07:24:41;99849.59;;;1.55;100.00
70133;BME280;57495;49.922;7.966;2022-12-04T07:26:44;99848.09;;;1.51;100.00
70133;BME280;57495;49.922;7.966;2022-12-04T07:28:46;99850.34;;;1.43;100.00
70133;BME280;57495;49.922;7.966;2022-12-04T07:30:48;99848.28;;;1.48;100.00
70133;BME280;57495;49.922;7.966;2022-12-04T07:32:49;99852.31;;;1.39;100.00
70133;BME280;57495;49.922;7.966;2022-12-04T07:34:51;99840.56;;;1.45;100.00
70133;BME280;57495;49.922;7.966;2022-12-04T07:36:52;99846.59;;;1.47;100.00
70133;BME280;57495;49.922;7.966;2022-12-04T07:38:55;99843.38;;;1.42;100.00
70133;BME280;57495;49.922;7.966;2022-12-04T07:40:57;99844.56;;;1.36;100.00
70133;BME280;57495;49.922;7.966;2022-12-04T07:42:59;99846.91;;;1.41;100.00
70133;BME280;57495;49.922;7.966;2022-12-04T07:45:01;99855.78;;;1.40;100.00
70133;BME280;57495;49.922;7.966;2022-12-04T07:47:02;99857.78;;;1.50;100.00
70133;BME280;57495;49.922;7.966;2022-12-04T07:49:04;99853.00;;;1.57;100.00
70133;BME280;57495;49.922;7.966;2022-12-04T07:51:07;99855.75;;;1.56;100.00
70133;BME280;57495;49.922;7.966;2022-12-04T07:53:09;99856.44;;;1.43;100.00
70133;BME280;57495;49.922;7.966;2022-12-04T07:55:10;99849.97;;;1.49;100.00
70133;BME280;57495;49.922;7.966;2022-12-04T07:57:12;99855.09;;;1.52;100.00
70133;BME280;57495;49.922;7.966;2022-12-04T07:59:15;99851.31;;;1.56;100.00
70133;BME280;57495;49.922;7.966;2022-12-04T08:01:18;99855.22;;;1.65;100.00
70133;BME280;57495;49.922;7.966;2022-12-04T08:03:19;99858.47;;;1.54;100.00
70133;BME280;57495;49.922;7.966;2022-12-04T08:05:21;99863.53;;;1.57;100.00
70133;BME280;57495;49.922;7.966;2022-12-04T08:07:22;99865.41;;;1.55;100.00
70133;BME280;57495;49.922;7.966;2022-12-04T08:09:24;99863.53;;;1.57;100.00
70133;BME280;57495;49.922;7.966;2022-12-04T08:11:26;99860.75;;;1.60;100.00
70133;BME280;57495;49.922;7.966;2022-12-04T08:13:28;99870.16;;;1.64;100.00
70133;BME280;57495;49.922;7.966;2022-12-04T08:15:30;99868.78;;;1.73;100.00
70133;BME280;57495;49.922;7.966;2022-12-04T08:17:32;99880.91;;;1.61;100.00
70133;BME280;57495;49.922;7.966;2022-12-04T08:19:33;99877.31;;;1.62;100.00
70133;BME280;57495;49.922;7.966;2022-12-04T08:21:35;99871.66;;;1.68;100.00
70133;BME280;57495;49.922;7.966;2022-12-04T08:23:37;99869.91;;;1.69;100.00
70133;BME280;57495;49.922;7.966;2022-12-04T08:25:39;99876.75;;;1.71;100.00
70133;BME280;57495;49.922;7.966;2022-12-04T08:27:41;99869.41;;;1.62;100.00
70133;BME280;57495;49.922;7.966;2022-12-04T08:29:45;99868.81;;;1.57;100.00
70133;BME280;57495;49.922;7.966;2022-12-04T08:31:48;99864.88;;;1.64;100.00
70133;BME280;57495;49.922;7.966;2022-12-04T08:33:52;99861.50;;;1.62;100.00
70133;BME280;57495;49.922;7.966;2022-12-04T08:35:53;99867.06;;;1.72;100.00
70133;BME280;57495;49.922;7.966;2022-12-04T08:37:55;99871.91;;;1.80;100.00
70133;BME280;57495;49.922;7.966;2022-12-04T08:39:56;99866.16;;;2.88;100.00
70133;BME280;57495;49.922;7.966;2022-12-04T08:41:58;99863.56;;;2.16;100.00
70133;BME280;57495;49.922;7.966;2022-12-04T08:43:59;99859.22;;;2.01;100.00
70133;BME280;57495;49.922;7.966;2022-12-04T08:46:03;99859.69;;;1.93;100.00
70133;BME280;57495;49.922;7.966;2022-12-04T08:48:06;99869.84;;;1.99;100.00
70133;BME280;57495;49.922;7.966;2022-12-04T08:50:08;99857.44;;;2.01;100.00
70133;BME280;57495;49.922;7.966;2022-12-04T08:52:09;99854.03;;;1.99;100.00
70133;BME280;57495;49.922;7.966;2022-12-04T08:54:11;99864.38;;;1.88;100.00
70133;BME280;57495;49.922;7.966;2022-12-04T08:56:13;99855.44;;;1.90;100.00
70133;BME280;57495;49.922;7.966;2022-12-04T08:58:15;99855.25;;;1.93;100.00
70133;BME280;57495;49.922;7.966;2022-12-04T09:00:17;99850.81;;;1.80;100.00
70133;BME280;57495;49.922;7.966;2022-12-04T09:02:18;99853.47;;;1.80;100.00
70133;BME280;57495;49.922;7.966;2022-12-04T09:04:21;99854.97;;;1.84;100.00
70133;BME280;57495;49.922;7.966;2022-12-04T09:06:23;99854.22;;;1.96;100.00
70133;BME280;57495;49.922;7.966;2022-12-04T09:08:25;99854.22;;;1.96;100.00
70133;BME280;57495;49.922;7.966;2022-12-04T09:10:26;99851.31;;;2.01;100.00
70133;BME280;57495;49.922;7.966;2022-12-04T09:12:28;99855.53;;;2.03;100.00
70133;BME280;57495;49.922;7.966;2022-12-04T09:14:29;99856.00;;;1.96;100.00
70133;BME280;57495;49.922;7.966;2022-12-04T09:16:30;99854.53;;;2.06;100.00
70133;BME280;57495;49.922;7.966;2022-12-04T09:18:32;99857.50;;;2.00;100.00
70133;BME280;57495;49.922;7.966;2022-12-04T09:20:36;99851.81;;;2.07;100.00
70133;BME280;57495;49.922;7.966;2022-12-04T09:22:37;99858.19;;;2.18;100.00
70133;BME280;57495;49.922;7.966;2022-12-04T09:24:38;99864.44;;;2.17;100.00
70133;BME280;57495;49.922;7.966;2022-12-04T09:26:40;99862.44;;;2.20;100.00
70133;BME280;57495;49.922;7.966;2022-12-04T09:28:42;99858.56;;;2.55;100.00
70133;BME280;57495;49.922;7.966;2022-12-04T09:30:43;99855.00;;;2.41;100.00
70133;BME280;57495;49.922;7.966;2022-12-04T09:32:45;99850.97;;;2.36;100.00
70133;BME280;57495;49.922;7.966;2022-12-04T09:34:46;99848.22;;;2.37;100.00
70133;BME280;57495;49.922;7.966;2022-12-04T09:36:49;99848.75;;;2.42;100.00
70133;BME280;57495;49.922;7.966;2022-12-04T09:38:52;99853.50;;;2.37;100.00
70133;BME280;57495;49.922;7.966;2022-12-04T09:40:57;99845.41;;;2.26;100.00
70133;BME280;57495;49.922;7.966;2022-12-04T09:43:05;99848.66;;;2.29;100.00
70133;BME280;57495;49.922;7.966;2022-12-04T09:45:13;99848.41;;;2.20;100.00
70133;BME280;57495;49.922;7.966;2022-12-04T09:47:21;99849.06;;;2.23;100.00
70133;BME280;57495;49.922;7.966;2022-12-04T09:49:27;99837.00;;;2.34;100.00
70133;BME280;57495;49.922;7.966;2022-12-04T09:51:31;99842.75;;;2.40;100.00
70133;BME280;57495;49.922;7.966;2022-12-04T09:53:42;99840.19;;;2.39;100.00
70133;BME280;57495;49.922;7.966;2022-12-04T09:55:54;99839.09;;;2.43;100.00
70133;BME280;57495;49.922;7.966;2022-12-04T09:57:57;99840.31;;;2.23;100.00
70133;BME280;57495;49.922;7.966;2022-12-04T10:00:03;99842.94;;;2.23;100.00
70133;BME280;57495;49.922;7.966;2022-12-04T10:02:27;99837.66;;;2.37;100.00
70133;BME280;57495;49.922;7.966;2022-12-04T10:04:32;99835.31;;;2.32;100.00
70133;BME280;57495;49.922;7.966;2022-12-04T10:06:40;99831.00;;;2.31;100.00
70133;BME280;57495;49.922;7.966;2022-12-04T10:08:51;99832.47;;;2.21;100.00
70133;BME280;57495;49.922;7.966;2022-12-04T10:11:03;99830.22;;;2.29;100.00
70133;BME280;57495;49.922;7.966;2022-12-04T10:13:21;99829.53;;;2.40;100.00
70133;BME280;57495;49.922;7.966;2022-12-04T10:15:28;99830.03;;;2.47;100.00
70133;BME280;57495;49.922;7.966;2022-12-04T10:17:46;99819.94;;;2.39;100.00
70133;BME280;57495;49.922;7.966;2022-12-04T10:20:01;99829.38;;;2.43;100.00
70133;BME280;57495;49.922;7.966;2022-12-04T10:22:11;99820.03;;;2.52;100.00
70133;BME280;57495;49.922;7.966;2022-12-04T10:24:26;99827.66;;;2.57;100.00
70133;BME280;57495;49.922;7.966;2022-12-04T10:26:34;99835.47;;;2.58;100.00
70133;BME280;57495;49.922;7.966;2022-12-04T10:28:39;99841.41;;;2.62;100.00
70133;BME280;57495;49.922;7.966;2022-12-04T10:30:41;99826.22;;;2.65;100.00
70133;BME280;57495;49.922;7.966;2022-12-04T10:32:44;99832.16;;;2.69;100.00
70133;BME280;57495;49.922;7.966;2022-12-04T10:34:48;99832.34;;;2.66;100.00
70133;BME280;57495;49.922;7.966;2022-12-04T10:36:53;99830.34;;;2.69;100.00
70133;BME280;57495;49.922;7.966;2022-12-04T10:38:57;99822.63;;;2.66;100.00
70133;BME280;57495;49.922;7.966;2022-12-04T10:41:05;99814.44;;;2.71;100.00
70133;BME280;57495;49.922;7.966;2022-12-04T10:43:13;99813.00;;;2.80;100.00
70133;BME280;57495;49.922;7.966;2022-12-04T10:45:15;99812.13;;;2.79;100.00
70133;BME280;57495;49.922;7.966;2022-12-04T10:47:17;99808.38;;;2.83;100.00
70133;BME280;57495;49.922;7.966;2022-12-04T10:49:20;99814.25;;;2.74;100.00
70133;BME280;57495;49.922;7.966;2022-12-04T10:51:23;99822.81;;;2.78;100.00
70133;BME280;57495;49.922;7.966;2022-12-04T10:53:28;99814.63;;;2.68;100.00
70133;BME280;57495;49.922;7.966;2022-12-04T10:55:32;99812.72;;;2.70;100.00
70133;BME280;57495;49.922;7.966;2022-12-04T10:57:38;99804.97;;;2.81;100.00
70133;BME280;57495;49.922;7.966;2022-12-04T10:59:47;99811.53;;;2.88;100.00
70133;BME280;57495;49.922;7.966;2022-12-04T11:01:50;99806.00;;;2.79;100.00
70133;BME280;57495;49.922;7.966;2022-12-04T11:03:55;99803.09;;;2.83;100.00